createdAt,value
2023-04-22T00:00:36.477Z,9.32
2023-04-22T00:03:04.458Z,9.27
2023-04-22T00:05:32.255Z,9.23
2023-04-22T00:08:01.806Z,9.17
2023-04-22T00:10:29.487Z,9.16
2023-04-22T00:12:57.163Z,9.09
2023-04-22T00:15:26.638Z,9.02
2023-04-22T00:17:54.465Z,9.03
2023-04-22T00:20:22.584Z,9.03
2023-04-22T00:22:50.286Z,8.92
2023-04-22T00:25:19.514Z,8.91
2023-04-22T00:27:47.287Z,8.98
2023-04-22T00:30:16.706Z,8.99
2023-04-22T00:32:44.352Z,8.97
2023-04-22T00:35:12.044Z,8.92
2023-04-22T00:37:39.827Z,8.97
2023-04-22T00:40:08.940Z,9.01
2023-04-22T00:42:38.469Z,9.01
2023-04-22T00:45:07.061Z,9.01
2023-04-22T00:47:35.020Z,9.03
2023-04-22T00:50:02.870Z,8.99
2023-04-22T00:52:31.078Z,8.95
2023-04-22T00:54:58.859Z,8.94
2023-04-22T00:57:26.699Z,8.96
2023-04-22T00:59:56.467Z,8.84
2023-04-22T01:02:24.432Z,8.71
2023-04-22T01:04:54.163Z,8.76
2023-04-22T01:07:21.960Z,8.75
2023-04-22T01:09:49.759Z,8.71
2023-04-22T01:12:17.467Z,8.67
2023-04-22T01:14:45.224Z,8.66
2023-04-22T01:17:14.525Z,8.63
2023-04-22T01:19:43.529Z,8.65
2023-04-22T01:22:13.107Z,8.66
2023-04-22T01:24:42.452Z,8.54
2023-04-22T01:27:10.357Z,8.43
2023-04-22T01:29:39.321Z,8.48
2023-04-22T01:32:07.983Z,8.49
2023-04-22T01:34:35.806Z,8.52
2023-04-22T01:37:03.576Z,8.53
2023-04-22T01:39:31.440Z,8.52
2023-04-22T01:42:02.186Z,8.45
2023-04-22T01:44:30.053Z,8.40
2023-04-22T01:46:57.915Z,8.42
2023-04-22T01:49:25.676Z,8.40
2023-04-22T01:51:53.437Z,8.41
2023-04-22T01:54:21.164Z,8.40
2023-04-22T01:56:52.658Z,8.39
2023-04-22T01:59:22.237Z,8.40
2023-04-22T02:01:50.102Z,8.40
2023-04-22T02:04:18.050Z,8.40
2023-04-22T02:06:45.719Z,8.39
2023-04-22T02:09:13.416Z,8.29
2023-04-22T02:11:41.108Z,8.25
2023-04-22T02:14:08.780Z,8.20
2023-04-22T02:16:37.963Z,8.11
2023-04-22T02:19:05.881Z,8.11
2023-04-22T02:21:33.735Z,8.06
2023-04-22T02:24:01.690Z,8.08
2023-04-22T02:26:30.833Z,8.06
2023-04-22T02:28:58.698Z,8.02
2023-04-22T02:31:26.694Z,7.87
2023-04-22T02:33:55.913Z,7.86
2023-04-22T02:36:23.732Z,7.81
2023-04-22T02:38:51.341Z,7.76
2023-04-22T02:41:18.994Z,7.72
2023-04-22T02:43:46.937Z,7.70
2023-04-22T02:46:16.355Z,7.67
2023-04-22T02:48:44.320Z,7.69
2023-04-22T02:51:13.414Z,7.62
2023-04-22T02:53:41.240Z,7.55
2023-04-22T02:56:09.544Z,7.57
2023-04-22T02:58:37.324Z,7.56
2023-04-22T03:01:05.332Z,7.56
2023-04-22T03:03:33.211Z,7.46
2023-04-22T03:06:01.029Z,7.36
2023-04-22T03:08:30.056Z,7.32
2023-04-22T03:10:57.769Z,7.31
2023-04-22T03:13:25.397Z,7.28
2023-04-22T03:15:53.163Z,7.23
2023-04-22T03:18:20.809Z,7.22
2023-04-22T03:20:48.444Z,7.20
2023-04-22T03:23:16.098Z,7.14
2023-04-22T03:25:45.158Z,7.07
2023-04-22T03:28:12.803Z,7.01
2023-04-22T03:30:40.633Z,6.98
2023-04-22T03:33:08.726Z,7.00
2023-04-22T03:35:36.547Z,7.02
2023-04-22T03:38:04.215Z,6.98
2023-04-22T03:40:31.923Z,6.90
2023-04-22T03:43:00.907Z,6.85
2023-04-22T03:45:28.555Z,6.79
2023-04-22T03:47:56.473Z,6.75
2023-04-22T03:50:24.378Z,6.74
2023-04-22T03:52:52.069Z,6.73
2023-04-22T03:55:19.766Z,6.65
2023-04-22T03:57:47.396Z,6.51
2023-04-22T04:00:16.863Z,6.48
2023-04-22T04:02:44.940Z,6.48
2023-04-22T04:05:12.887Z,6.49
2023-04-22T04:07:41.043Z,6.47
2023-04-22T04:10:09.949Z,6.49
2023-04-22T04:12:37.730Z,6.51
2023-04-22T04:15:06.570Z,6.50
2023-04-22T04:17:36.322Z,6.47
2023-04-22T04:20:04.122Z,6.43
2023-04-22T04:22:31.941Z,6.34
2023-04-22T04:24:59.752Z,6.28
2023-04-22T04:27:27.914Z,6.24
2023-04-22T04:29:56.021Z,6.24
2023-04-22T04:32:24.286Z,6.27
2023-04-22T04:34:53.955Z,6.31
2023-04-22T04:37:22.406Z,6.35
2023-04-22T04:39:50.207Z,6.40
2023-04-22T04:42:18.115Z,6.40
2023-04-22T04:44:47.488Z,6.42
2023-04-22T04:47:16.007Z,6.45
2023-04-22T04:49:43.811Z,6.41
2023-04-22T04:52:12.798Z,6.42
2023-04-22T04:54:40.470Z,6.48
2023-04-22T04:57:10.087Z,6.51
2023-04-22T04:59:38.005Z,6.51
2023-04-22T05:02:05.903Z,6.55
2023-04-22T05:04:33.748Z,6.62
2023-04-22T05:07:01.805Z,6.72
2023-04-22T05:09:32.949Z,6.76
2023-04-22T05:12:00.753Z,6.82
2023-04-22T05:14:28.425Z,6.93
2023-04-22T05:16:56.159Z,7.02
2023-04-22T05:19:23.817Z,7.12
2023-04-22T05:21:51.485Z,7.21
2023-04-22T05:24:19.135Z,7.30
2023-04-22T05:26:48.131Z,7.40
2023-04-22T05:29:15.830Z,7.53
2023-04-22T05:31:43.554Z,7.67
2023-04-22T05:34:11.999Z,7.76
2023-04-22T05:36:39.767Z,7.91
2023-04-22T05:39:07.823Z,8.02
2023-04-22T05:41:35.597Z,8.14
2023-04-22T05:44:04.583Z,8.25
2023-04-22T05:46:32.338Z,8.32
2023-04-22T05:49:00.118Z,8.42
2023-04-22T05:51:27.844Z,8.51
2023-04-22T05:53:55.515Z,8.64
2023-04-22T05:56:23.296Z,8.76
2023-04-22T05:58:51.015Z,8.93
2023-04-22T06:01:20.087Z,9.06
2023-04-22T06:03:48.090Z,9.23
2023-04-22T06:06:15.964Z,9.36
2023-04-22T06:08:43.718Z,9.54
2023-04-22T06:11:11.580Z,9.74
2023-04-22T06:13:39.284Z,9.90
2023-04-22T06:18:38.234Z,10.32
2023-04-22T06:21:06.592Z,10.49
2023-04-22T06:23:34.257Z,10.62
2023-04-22T06:26:02.298Z,10.71
2023-04-22T06:28:29.954Z,10.82
2023-04-22T06:30:57.717Z,10.91
2023-04-22T06:33:25.436Z,11.01
2023-04-22T06:35:54.524Z,11.09
2023-04-22T06:38:22.144Z,11.19
2023-04-22T06:40:49.822Z,11.28
2023-04-22T06:43:17.494Z,11.42
2023-04-22T06:45:45.181Z,11.50
2023-04-22T06:48:12.796Z,11.66
2023-04-22T06:50:40.501Z,11.81
2023-04-22T06:53:09.904Z,11.95
2023-04-22T06:55:37.594Z,12.02
2023-04-22T06:58:05.235Z,12.11
2023-04-22T07:00:32.911Z,12.22
2023-04-22T07:03:00.732Z,12.44
2023-04-22T07:05:28.493Z,12.69
2023-04-22T07:07:56.113Z,12.96
2023-04-22T07:10:25.765Z,13.17
2023-04-22T07:12:53.493Z,13.32
2023-04-22T07:15:21.192Z,13.42
2023-04-22T07:17:48.891Z,13.63
2023-04-22T07:20:16.742Z,13.93
2023-04-22T07:22:44.424Z,14.19
2023-04-22T07:25:12.070Z,14.42
2023-04-22T07:27:41.077Z,14.67
2023-04-22T07:30:10.136Z,14.98
2023-04-22T07:32:37.798Z,15.16
2023-04-22T07:35:06.118Z,15.34
2023-04-22T07:37:33.770Z,15.54
2023-04-22T07:40:01.429Z,15.81
2023-04-22T07:42:29.042Z,16.05
2023-04-22T07:44:58.091Z,16.18
2023-04-22T07:47:25.912Z,16.27
2023-04-22T07:49:53.619Z,16.15
2023-04-22T07:52:21.267Z,16.48
2023-04-22T07:54:48.965Z,16.84
2023-04-22T07:57:16.606Z,17.08
2023-04-22T07:59:44.301Z,17.30
2023-04-22T08:02:13.532Z,17.38
2023-04-22T08:04:41.322Z,17.58
2023-04-22T08:07:26.817Z,17.69
2023-04-22T08:09:57.053Z,17.66
2023-04-22T08:12:24.910Z,17.74
2023-04-22T08:14:52.561Z,17.80
2023-04-22T08:17:22.250Z,17.97
2023-04-22T08:19:50.221Z,18.09
2023-04-22T08:22:18.871Z,18.31
2023-04-22T08:24:46.550Z,18.28
2023-04-22T08:27:14.222Z,18.33
2023-04-22T08:29:42.125Z,18.62
2023-04-22T08:32:10.144Z,18.90
2023-04-22T08:34:39.189Z,19.16
2023-04-22T08:37:06.878Z,19.35
2023-04-22T08:39:34.543Z,19.47
2023-04-22T08:42:02.281Z,19.38
2023-04-22T08:44:29.964Z,19.47
2023-04-22T08:46:57.763Z,19.61
2023-04-22T08:49:25.882Z,19.83
2023-04-22T08:51:56.089Z,20.05
2023-04-22T08:54:24.637Z,20.40
2023-04-22T08:56:52.625Z,20.63
2023-04-22T08:59:21.569Z,20.98
2023-04-22T09:01:53.761Z,21.25
2023-04-22T09:04:21.725Z,21.27
2023-04-22T09:06:49.487Z,21.22
2023-04-22T09:09:18.584Z,21.48
2023-04-22T09:11:46.304Z,21.76
2023-04-22T09:14:14.000Z,21.05
2023-04-22T09:16:42.890Z,20.89
2023-04-22T09:19:12.821Z,21.37
2023-04-22T09:21:40.714Z,21.55
2023-04-22T09:24:09.983Z,21.86
2023-04-22T09:26:42.289Z,21.36
2023-04-22T09:29:14.698Z,20.75
2023-04-22T09:31:42.500Z,20.14
2023-04-22T09:34:10.331Z,20.62
2023-04-22T09:36:38.375Z,20.65
2023-04-22T09:39:08.617Z,20.70
2023-04-22T09:41:38.765Z,20.86
2023-04-22T09:44:11.047Z,20.68
2023-04-22T09:46:38.682Z,21.19
2023-04-22T09:49:06.473Z,20.51
2023-04-22T09:51:34.565Z,20.61
2023-04-22T09:54:06.245Z,20.71
2023-04-22T09:56:50.155Z,21.20
2023-04-22T09:59:23.454Z,21.69
2023-04-22T10:01:52.637Z,21.96
2023-04-22T10:04:23.238Z,22.33
2023-04-22T10:06:51.563Z,22.50
2023-04-22T10:09:20.440Z,22.30
2023-04-22T10:11:48.990Z,22.44
2023-04-22T10:14:16.632Z,22.73
2023-04-22T10:16:47.617Z,23.02
2023-04-22T10:19:19.056Z,23.22
2023-04-22T10:21:47.912Z,23.49
2023-04-22T10:24:16.950Z,23.33
2023-04-22T10:26:49.318Z,23.02
2023-04-22T10:29:18.378Z,22.90
2023-04-22T10:31:54.304Z,22.62
2023-04-22T10:34:22.026Z,22.77
2023-04-22T10:36:57.429Z,22.88
2023-04-22T10:39:25.833Z,23.10
2023-04-22T10:41:56.120Z,23.23
2023-04-22T10:44:24.335Z,23.22
2023-04-22T10:47:03.044Z,23.41
2023-04-22T10:49:32.666Z,23.73
2023-04-22T10:52:03.960Z,23.54
2023-04-22T10:55:02.656Z,23.89
2023-04-22T10:57:37.855Z,24.18
2023-04-22T11:00:35.311Z,24.35
2023-04-22T11:03:17.444Z,24.75
2023-04-22T11:05:45.739Z,24.67
2023-04-22T11:08:16.610Z,24.33
2023-04-22T11:10:45.372Z,23.58
2023-04-22T11:13:15.664Z,24.11
2023-04-22T11:15:44.696Z,23.91
2023-04-22T11:18:20.968Z,23.88
2023-04-22T11:20:49.851Z,23.83
2023-04-22T11:23:22.907Z,23.53
2023-04-22T11:25:55.686Z,23.11
2023-04-22T11:28:23.502Z,23.56
2023-04-22T11:30:51.906Z,23.53
2023-04-22T11:33:21.172Z,23.58
2023-04-22T11:35:50.657Z,23.53
2023-04-22T11:38:18.336Z,24.01
2023-04-22T11:40:47.244Z,24.42
2023-04-22T11:43:15.392Z,24.39
2023-04-22T11:45:43.207Z,24.79
2023-04-22T11:48:12.472Z,24.94
2023-04-22T11:50:44.139Z,25.14
2023-04-22T11:53:16.062Z,25.66
2023-04-22T11:55:44.469Z,25.07
2023-04-22T11:58:14.189Z,25.25
2023-04-22T12:00:43.499Z,25.60
2023-04-22T12:03:15.602Z,25.51
2023-04-22T12:05:46.229Z,25.87
2023-04-22T12:08:16.180Z,25.69
2023-04-22T12:10:45.713Z,25.68
2023-04-22T12:13:19.788Z,25.34
2023-04-22T12:15:47.457Z,23.60
2023-04-22T12:18:15.116Z,22.52
2023-04-22T12:20:43.255Z,22.26
2023-04-22T12:23:16.363Z,22.89
2023-04-22T12:25:44.497Z,23.39
2023-04-22T12:28:13.021Z,23.27
2023-04-22T12:30:40.792Z,23.47
2023-04-22T12:33:09.391Z,22.89
2023-04-22T12:35:37.323Z,22.75
2023-04-22T12:38:05.042Z,22.97
2023-04-22T12:40:34.058Z,23.25
2023-04-22T12:43:05.886Z,23.28
2023-04-22T12:45:33.528Z,23.23
2023-04-22T12:48:01.193Z,23.56
2023-04-22T12:50:28.934Z,23.42
2023-04-22T12:52:56.595Z,23.83
2023-04-22T12:55:24.273Z,24.06
2023-04-22T12:57:53.529Z,24.09
2023-04-22T13:00:21.390Z,24.42
2023-04-22T13:02:50.275Z,24.26
2023-04-22T13:05:19.509Z,24.44
2023-04-22T13:07:59.664Z,24.66
2023-04-22T13:10:34.161Z,24.84
2023-04-22T13:13:16.695Z,24.95
2023-04-22T13:15:45.876Z,25.27
2023-04-22T13:18:13.646Z,25.50
2023-04-22T13:20:42.407Z,25.61
2023-04-22T13:23:10.659Z,25.47
2023-04-22T13:25:38.592Z,25.49
2023-04-22T13:28:07.657Z,25.33
2023-04-22T13:30:35.482Z,24.66
2023-04-22T13:33:03.440Z,23.85
2023-04-22T13:35:31.712Z,23.67
2023-04-22T13:37:59.584Z,24.15
2023-04-22T13:40:27.672Z,24.46
2023-04-22T13:42:55.512Z,24.38
2023-04-22T13:45:25.626Z,24.02
2023-04-22T13:47:54.656Z,24.09
2023-04-22T13:50:22.598Z,24.50
2023-04-22T13:52:50.398Z,24.62
2023-04-22T13:55:18.960Z,24.55
2023-04-22T13:57:46.743Z,24.38
2023-04-22T14:00:15.075Z,24.25
2023-04-22T14:02:44.276Z,23.80
2023-04-22T14:05:11.981Z,23.82
2023-04-22T14:07:39.650Z,24.07
2023-04-22T14:10:11.938Z,23.92
2023-04-22T14:12:39.926Z,24.30
2023-04-22T14:15:10.838Z,24.21
2023-04-22T14:17:38.752Z,24.20
2023-04-22T14:20:11.083Z,24.07
2023-04-22T14:22:38.873Z,23.90
2023-04-22T14:25:07.942Z,23.65
2023-04-22T14:27:35.757Z,23.41
2023-04-22T14:30:04.357Z,23.57
2023-04-22T14:32:34.323Z,23.77
2023-04-22T14:35:02.029Z,23.58
2023-04-22T14:37:32.042Z,23.11
2023-04-22T14:39:59.853Z,22.86
2023-04-22T14:42:27.652Z,23.39
2023-04-22T14:44:55.339Z,23.53
2023-04-22T14:47:23.379Z,23.45
2023-04-22T14:49:51.160Z,23.56
2023-04-22T14:52:18.826Z,23.40
2023-04-22T14:54:51.276Z,23.45
2023-04-22T14:57:19.590Z,23.21
2023-04-22T14:59:47.284Z,23.10
2023-04-22T15:02:16.081Z,23.18
2023-04-22T15:04:43.946Z,23.18
2023-04-22T15:07:11.650Z,23.35
2023-04-22T15:09:39.777Z,23.32
2023-04-22T15:12:09.111Z,22.79
2023-04-22T15:14:37.177Z,22.97
2023-04-22T15:17:05.438Z,23.18
2023-04-22T15:19:33.356Z,23.33
2023-04-22T15:22:01.084Z,23.17
2023-04-22T15:24:28.828Z,23.07
2023-04-22T15:26:56.822Z,22.93
2023-04-22T15:29:26.670Z,23.05
2023-04-22T15:31:54.669Z,23.15
2023-04-22T15:34:22.610Z,23.17
2023-04-22T15:36:50.581Z,22.99
2023-04-22T15:39:18.403Z,22.77
2023-04-22T15:41:46.548Z,22.87
2023-04-22T15:44:16.132Z,22.72
2023-04-22T15:46:46.427Z,22.71
2023-04-22T15:49:14.748Z,22.85
2023-04-22T15:51:43.180Z,22.81
2023-04-22T15:54:11.073Z,22.83
2023-04-22T15:56:38.740Z,22.76
2023-04-22T15:59:06.887Z,22.75
2023-04-22T16:01:34.604Z,22.67
2023-04-22T16:04:03.912Z,22.67
2023-04-22T16:06:32.181Z,22.62
2023-04-22T16:08:59.924Z,22.32
2023-04-22T16:11:27.616Z,22.35
2023-04-22T16:13:55.328Z,22.33
2023-04-22T16:16:23.751Z,22.47
2023-04-22T16:18:51.482Z,22.38
2023-04-22T16:21:20.540Z,22.41
2023-04-22T16:23:48.619Z,22.25
2023-04-22T16:26:16.403Z,22.09
2023-04-22T16:28:44.306Z,22.00
2023-04-22T16:31:12.095Z,21.90
2023-04-22T16:33:39.925Z,21.97
2023-04-22T16:36:08.918Z,21.90
2023-04-22T16:38:38.001Z,21.75
2023-04-22T16:41:05.850Z,21.77
2023-04-22T16:43:33.552Z,21.69
2023-04-22T16:46:01.869Z,21.67
2023-04-22T16:48:29.762Z,21.38
2023-04-22T16:50:57.406Z,21.34
2023-04-22T16:53:25.080Z,21.29
2023-04-22T16:55:54.104Z,21.27
2023-04-22T16:58:21.782Z,21.15
2023-04-22T17:00:49.560Z,21.08
2023-04-22T17:03:17.355Z,21.03
2023-04-22T17:05:45.097Z,21.09
2023-04-22T17:08:12.752Z,21.04
2023-04-22T17:10:44.919Z,21.10
2023-04-22T17:13:14.694Z,21.12
2023-04-22T17:15:42.724Z,21.10
2023-04-22T17:18:10.678Z,21.03
2023-04-22T17:20:38.524Z,21.02
2023-04-22T17:23:06.188Z,21.01
2023-04-22T17:25:33.798Z,20.96
2023-04-22T17:28:01.483Z,20.92
2023-04-22T17:30:30.567Z,20.92
2023-04-22T17:32:59.212Z,20.88
2023-04-22T17:35:26.925Z,20.77
2023-04-22T17:37:54.637Z,20.67
2023-04-22T17:40:22.879Z,20.59
2023-04-22T17:42:51.188Z,20.39
2023-04-22T17:45:18.914Z,20.32
2023-04-22T17:47:48.714Z,20.18
2023-04-22T17:50:16.466Z,19.99
2023-04-22T17:52:44.502Z,19.95
2023-04-22T17:55:12.123Z,19.88
2023-04-22T17:57:39.780Z,19.87
2023-04-22T18:00:10.079Z,19.90
2023-04-22T18:02:37.865Z,19.83
2023-04-22T18:05:07.471Z,19.71
2023-04-22T18:07:35.575Z,19.68
2023-04-22T18:10:03.308Z,19.66
2023-04-22T18:12:31.256Z,19.66
2023-04-22T18:14:59.433Z,19.66
2023-04-22T18:17:27.119Z,19.62
2023-04-22T18:20:02.732Z,19.57
2023-04-22T18:22:32.288Z,19.52
2023-04-22T18:25:01.854Z,19.44
2023-04-22T18:27:29.619Z,19.37
2023-04-22T18:29:57.309Z,19.29
2023-04-22T18:32:24.989Z,19.22
2023-04-22T18:34:52.641Z,19.16
2023-04-22T18:37:21.028Z,19.12
2023-04-22T18:39:49.994Z,19.11
2023-04-22T18:42:17.607Z,19.06
2023-04-22T18:44:45.364Z,18.99
2023-04-22T18:47:13.006Z,18.91
2023-04-22T18:49:40.671Z,18.84
2023-04-22T18:52:08.465Z,18.81
2023-04-22T18:54:36.210Z,18.72
2023-04-22T18:57:05.847Z,18.64
2023-04-22T18:59:33.563Z,18.51
2023-04-22T19:02:01.497Z,18.50
2023-04-22T19:04:29.190Z,18.38
2023-04-22T19:06:57.319Z,18.27
2023-04-22T19:09:24.999Z,18.15
2023-04-22T19:11:52.632Z,18.02
2023-04-22T19:14:21.688Z,17.94
2023-04-22T19:16:49.371Z,17.83
2023-04-22T19:19:17.065Z,17.76
2023-04-22T19:21:45.052Z,17.70
2023-04-22T19:24:14.278Z,17.57
2023-04-22T19:26:42.076Z,17.45
2023-04-22T19:29:10.695Z,17.30
2023-04-22T19:31:39.917Z,17.30
2023-04-22T19:34:07.765Z,17.21
2023-04-22T19:36:35.426Z,17.18
2023-04-22T19:39:06.063Z,17.05
2023-04-22T19:41:34.891Z,17.00
2023-04-22T19:44:02.562Z,16.91
2023-04-22T19:46:30.231Z,16.82
2023-04-22T19:48:59.813Z,16.72
2023-04-22T19:51:27.534Z,16.71
2023-04-22T19:53:55.684Z,16.63
2023-04-22T19:56:23.511Z,16.58
2023-04-22T19:58:51.955Z,16.57
2023-04-22T20:01:19.968Z,16.57
2023-04-22T20:03:48.372Z,16.45
2023-04-22T20:06:17.761Z,16.34
2023-04-22T20:08:45.501Z,16.28
2023-04-22T20:11:13.492Z,16.21
2023-04-22T20:13:42.252Z,16.17
2023-04-22T20:16:10.715Z,16.10
2023-04-22T20:18:38.776Z,16.10
2023-04-22T20:21:06.561Z,16.11
2023-04-22T20:23:35.650Z,16.09
2023-04-22T20:26:04.549Z,16.08
2023-04-22T20:28:44.090Z,16.03
2023-04-22T20:31:12.088Z,15.97
2023-04-22T20:33:40.023Z,15.90
2023-04-22T20:36:08.670Z,15.86
2023-04-22T20:38:38.290Z,15.85
2023-04-22T20:41:07.197Z,15.85
2023-04-22T20:43:34.942Z,15.84
2023-04-22T20:46:02.659Z,15.80
2023-04-22T20:48:30.392Z,15.72
2023-04-22T20:50:58.058Z,15.63
2023-04-22T20:53:27.130Z,15.55
2023-04-22T20:55:56.124Z,15.51
2023-04-22T20:58:23.841Z,15.49
2023-04-22T21:00:51.650Z,15.42
2023-04-22T21:03:19.650Z,15.37
2023-04-22T21:05:47.454Z,15.29
2023-04-22T21:08:23.037Z,15.24
2023-04-22T21:10:52.140Z,15.17
2023-04-22T21:13:21.952Z,15.15
2023-04-22T21:15:56.213Z,15.11
2023-04-22T21:18:25.604Z,15.08
2023-04-22T21:20:54.377Z,15.00
2023-04-22T21:23:23.917Z,14.82
2023-04-22T21:25:54.312Z,14.78
2023-04-22T21:28:24.614Z,14.81
2023-04-22T21:30:52.884Z,14.81
2023-04-22T21:33:20.766Z,14.80
2023-04-22T21:35:48.498Z,14.78
2023-04-22T21:38:17.013Z,14.77
2023-04-22T21:40:44.777Z,14.74
2023-04-22T21:43:12.406Z,14.72
2023-04-22T21:45:41.492Z,14.70
2023-04-22T21:48:09.254Z,14.69
2023-04-22T21:50:37.046Z,14.67
2023-04-22T21:53:04.722Z,14.63
2023-04-22T21:55:32.391Z,14.60
2023-04-22T21:58:00.098Z,14.59
2023-04-22T22:00:27.828Z,14.55
2023-04-22T22:02:57.010Z,14.50
2023-04-22T22:05:24.762Z,14.47
2023-04-22T22:07:52.936Z,14.48
2023-04-22T22:10:20.624Z,14.50
2023-04-22T22:12:48.495Z,14.46
2023-04-22T22:15:16.663Z,14.48
2023-04-22T22:17:44.668Z,14.50
2023-04-22T22:20:16.672Z,14.49
2023-04-22T22:22:45.569Z,14.51
2023-04-22T22:25:15.686Z,14.52
2023-04-22T22:27:45.556Z,14.49
2023-04-22T22:30:13.640Z,14.50
2023-04-22T22:32:41.370Z,14.50
2023-04-22T22:35:09.905Z,14.53
2023-04-22T22:37:39.002Z,14.52
2023-04-22T22:40:08.680Z,14.53
2023-04-22T22:42:36.367Z,14.48
2023-04-22T22:45:05.552Z,14.44
2023-04-22T22:47:33.310Z,14.45
2023-04-22T22:50:00.990Z,14.46
2023-04-22T22:52:28.748Z,14.47
2023-04-22T22:54:57.721Z,14.43
2023-04-22T22:57:25.404Z,14.42
2023-04-22T22:59:53.040Z,14.40
2023-04-22T23:02:20.906Z,14.41
2023-04-22T23:04:48.858Z,14.42
2023-04-22T23:07:16.657Z,14.42
2023-04-22T23:09:44.286Z,14.44
2023-04-22T23:12:13.298Z,14.41
2023-04-22T23:14:41.416Z,14.37
2023-04-22T23:17:09.373Z,14.35
2023-04-22T23:19:37.429Z,14.33
2023-04-22T23:22:06.836Z,14.31
2023-04-22T23:24:34.989Z,14.26
2023-04-22T23:27:03.206Z,14.26
2023-04-22T23:29:33.090Z,14.19
2023-04-22T23:32:02.596Z,14.09
2023-04-22T23:34:33.695Z,14.02
2023-04-22T23:37:03.508Z,14.02
2023-04-22T23:39:31.161Z,14.01
2023-04-22T23:41:58.853Z,13.98
2023-04-22T23:44:26.540Z,13.99
2023-04-22T23:46:55.629Z,13.96
2023-04-22T23:49:23.425Z,13.90
2023-04-22T23:51:51.554Z,13.88
2023-04-22T23:54:19.222Z,13.83
2023-04-22T23:56:47.608Z,13.82
2023-04-22T23:59:15.806Z,13.78
